Latest Weather Observations for Cowra

IDN60801

Issued at 9:02 pm EDT Friday 24 February 2017 (issued every 30 minutes, with the page automatically refreshed every 10 minutes)

About weather observations | Map of weather stations | Latest weather observations for NSW | Other Formats
Station Details ID: 065111 Name: COWRA AIRPORT AWS Lat: -33.84 Lon: 148.65 Height: 300.4 m
Data from the previous 72 hours. | See also: Recent months at Cowra
Date/Time
EDT
Temp
°C
App
Temp
°C
Dew
Point
°C
Rel
Hum
%
Delta-T
°C
Wind Press
QNH
hPa
Press
MSL
hPa
Rain since
9am
mm
Dir  Spd
km/h
Gust
km/h
Spd
kts
Gust
kts
24/09:00pm 25.4 21.7 0.1 19 11.9 SW 9 11 5 6 1016.7 - -
24/08:30pm 26.2 22.0 -0.8 17 12.5 SW 11 13 6 7 1016.4 1014.9 0.0
24/08:00pm 28.1 23.8 -1.9 14 13.8 SSW 11 15 6 8 1016.1 1014.6 0.0
24/07:30pm 31.4 25.5 -2.6 11 15.9 SW 19 28 10 15 1015.7 1014.2 0.0
24/07:00pm 33.3 26.8 -2.4 10 17.0 SW 22 28 12 15 1015.5 1014.0 0.0
24/06:30pm 34.5 27.7 -1.5 10 17.5 SW 24 32 13 17 1015.3 1013.8 0.0
24/06:00pm 34.9 27.8 -1.2 10 17.7 SW 26 37 14 20 1015.2 1013.7 0.0
24/05:30pm 35.8 29.0 3.1 13 17.3 SW 28 39 15 21 1015.2 1013.7 0.0
24/05:00pm 35.9 29.1 3.2 13 17.3 SW 28 43 15 23 1015.0 1013.5 0.0
24/04:30pm 35.9 28.4 3.2 13 17.3 SW 32 43 17 23 1015.2 1013.7 0.0
24/04:00pm 36.8 30.1 3.9 13 17.7 SW 28 41 15 22 1015.2 1013.7 0.0
24/03:46pm 36.3 29.6 3.5 13 17.5 SW 28 48 15 26 1015.2 1013.7 0.0
24/03:30pm 36.3 30.0 3.5 13 17.5 SW 26 39 14 21 1015.3 1013.8 0.0
24/03:00pm 37.0 31.7 5.1 14 17.5 SW 22 35 12 19 1015.6 1014.1 0.0
24/02:30pm 36.4 30.8 3.6 13 17.5 SW 22 35 12 19 1016.1 1014.6 0.0
24/02:00pm 36.4 30.8 -0.1 10 18.4 SW 19 28 10 15 1016.6 1015.1 0.0
24/01:30pm 36.0 30.4 3.3 13 17.3 SW 22 33 12 18 1017.2 1015.6 0.0
24/01:00pm 35.5 30.9 3.9 14 16.9 WSW 17 28 9 15 1017.6 1016.1 0.0
24/12:30pm 34.5 31.5 4.1 15 16.2 S 9 19 5 10 1018.0 1016.5 0.0
24/12:00pm 33.1 29.7 3.9 16 15.4 SSW 11 20 6 11 1018.6 1017.1 0.0
24/11:30am 32.1 28.3 4.0 17 14.7 SSW 13 20 7 11 1018.9 1017.4 0.0
24/11:00am 30.7 27.5 5.2 20 13.5 S 11 20 6 11 1019.2 1017.7 0.0
24/10:30am 29.2 26.0 5.3 22 12.6 SSW 11 15 6 8 1019.5 1018.0 0.0
24/10:00am 27.4 25.3 8.3 30 10.5 SSE 9 13 5 7 1019.5 1018.0 0.0
24/09:30am 25.5 23.7 8.1 33 9.4 SE 7 9 4 5 1019.4 1017.9 0.0
24/09:00am 23.8 23.2 9.0 39 8.1 SSE 2 7 1 4 1019.4 1017.9 0.0
24/08:30am 21.0 19.6 8.9 46 6.5 S 6 9 3 5 1019.4 1017.9 0.0
24/08:00am 19.5 18.6 9.4 52 5.4 SSE 4 7 2 4 1019.1 1017.6 0.0
24/07:30am 16.5 16.5 9.7 64 3.6 CALM 0 0 0 0 1018.7 1017.2 0.0
24/07:00am 15.2 14.8 9.6 69 2.9 ENE 2 6 1 3 1018.4 1016.9 0.0
24/06:30am 15.1 13.9 9.5 69 2.9 S 6 7 3 4 1018.1 1016.6 0.0
24/06:00am 15.6 14.1 9.3 66 3.3 SSE 7 15 4 8 1017.8 1016.3 0.0
24/05:30am 17.3 16.1 10.2 63 3.8 E 7 9 4 5 1017.6 1016.1 0.0
24/05:00am 17.2 16.1 9.9 62 3.9 SSE 6 9 3 5 1017.5 1016.0 0.0
24/04:30am 17.9 15.7 10.8 63 3.9 ESE 13 15 7 8 1017.4 1015.9 0.0
24/04:00am 16.4 16.0 9.8 65 3.5 ESE 2 7 1 4 1017.6 1016.1 0.0
24/03:30am 16.9 16.5 9.8 63 3.8 NE 2 9 1 5 1017.5 1016.0 0.0
24/03:00am 18.3 18.5 10.4 60 4.3 CALM 0 0 0 0 1017.4 1015.9 0.0
24/02:30am 18.5 18.5 9.8 57 4.7 CALM 0 0 0 0 1017.5 1016.0 0.0
24/02:00am 19.1 19.1 9.9 55 5.0 CALM 0 0 0 0 1017.3 1015.7 0.0
24/01:30am 20.3 20.4 10.1 52 5.6 CALM 0 0 0 0 1017.4 1015.9 0.0
24/01:00am 22.7 21.8 10.8 47 6.7 SE 6 11 3 6 1017.4 1015.9 0.0
24/12:30am 22.6 22.0 9.0 42 7.4 SE 2 7 1 4 1017.5 1016.0 0.0
24/12:00am 22.6 22.6 9.7 44 7.1 CALM 0 0 0 0 1017.6 1016.1 0.0
 
Date/Time
EDT
Temp
°C
App
Temp
°C
Dew
Point
°C
Rel
Hum
%
Delta-T
°C
Wind Press
QNH
hPa
Press
MSL
hPa
Rain since
9am
mm
Dir  Spd
km/h
Gust
km/h
Spd
kts
Gust
kts
23/11:30pm 25.4 23.7 9.7 37 8.7 SE 9 11 5 6 1017.6 1016.1 0.0
23/11:00pm 25.8 24.2 8.8 34 9.3 S 7 11 4 6 1017.5 1016.0 0.0
23/10:30pm 25.4 23.1 10.4 39 8.5 S 13 17 7 9 1017.4 1015.9 0.0
23/10:00pm 26.5 25.5 10.2 36 9.2 ENE 6 7 3 4 1017.1 1015.5 0.0
23/09:30pm 27.3 27.5 10.5 35 9.6 CALM 0 0 0 0 1017.1 1015.5 0.0
23/09:00pm 28.0 26.7 9.3 31 10.5 E 6 9 3 5 1016.7 1015.2 0.0
23/08:30pm 30.1 28.6 10.6 30 11.3 ENE 9 9 5 5 1016.3 1014.8 0.0
23/08:00pm 31.2 30.1 10.5 28 12.0 NE 7 9 4 5 1016.1 1014.6 0.0
23/07:30pm 33.1 33.1 9.8 24 13.5 CALM 0 6 0 3 1015.9 1014.4 0.0
23/07:00pm 34.2 33.7 9.4 22 14.3 NW 2 6 1 3 1015.8 1014.3 0.0
23/06:30pm 35.2 33.4 9.6 21 14.9 SW 9 11 5 6 1015.7 1014.2 0.0
23/06:00pm 34.5 33.0 9.0 21 14.7 NW 7 11 4 6 1015.6 1014.1 0.0
23/05:30pm 36.6 33.4 10.0 20 15.7 NNW 17 22 9 12 1015.6 1014.1 0.0
23/05:00pm 36.3 33.8 9.8 20 15.5 NNW 13 20 7 11 1015.7 1014.2 0.0
23/04:30pm 36.3 33.1 9.8 20 15.6 NNW 17 24 9 13 1015.9 1014.4 0.0
23/04:00pm 36.3 33.4 9.8 20 15.5 NW 15 26 8 14 1016.2 1014.7 0.0
23/03:30pm 36.5 33.3 9.9 20 15.6 NW 17 26 9 14 1016.5 1015.0 0.0
23/03:00pm 35.4 32.9 9.7 21 15.0 NNW 13 24 7 13 1016.8 1015.3 0.0
23/02:30pm 36.0 32.7 9.5 20 15.5 WNW 17 28 9 15 1017.2 1015.6 0.0
23/02:00pm 35.3 32.0 11.0 23 14.4 NNW 19 28 10 15 1017.4 1015.9 0.0
23/01:30pm 35.2 32.3 12.8 26 13.7 NW 20 32 11 17 1017.7 1016.2 0.0
23/01:00pm 34.7 31.8 13.0 27 13.2 NW 20 30 11 16 1018.0 1016.5 0.0
23/12:30pm 34.1 31.4 13.0 28 12.9 NW 19 26 10 14 1018.4 1016.9 0.0
23/12:00pm 33.4 30.5 12.9 28 12.4 NNW 20 35 11 19 1018.6 1017.1 0.0
23/11:30am 32.7 30.0 13.4 31 11.8 NW 20 33 11 18 1018.8 1017.3 0.0
23/11:00am 31.5 29.1 12.8 32 11.2 NNW 17 28 9 15 1019.0 1017.5 0.0
23/10:30am 30.5 27.6 12.9 34 10.6 NNW 20 28 11 15 1019.1 1017.6 0.0
23/10:00am 29.9 26.1 12.3 33 10.4 NNW 24 33 13 18 1019.1 1017.6 0.0
23/09:30am 26.7 25.4 11.2 38 8.9 N 9 19 5 10 1019.2 1017.7 0.0
23/09:00am 24.2 24.3 11.5 45 7.2 NW 2 6 1 3 1019.1 1017.6 0.0
23/08:30am 21.7 22.1 11.4 52 5.8 CALM 0 0 0 0 1018.8 1017.3 0.0
23/08:00am 19.8 19.8 11.3 58 4.7 ESE 2 6 1 3 1018.5 1017.0 0.0
23/07:30am 16.7 16.8 10.1 65 3.5 CALM 0 0 0 0 1018.1 1016.6 0.0
23/07:00am 15.5 15.4 9.4 67 3.2 CALM 0 4 0 2 1017.7 1016.2 0.0
23/06:30am 16.2 16.2 9.8 66 3.4 CALM 0 0 0 0 1017.4 1015.9 0.0
23/06:00am 16.7 15.4 10.1 65 3.5 ENE 7 11 4 6 1017.1 1015.5 0.0
23/05:30am 16.1 14.5 8.8 62 3.8 SSW 7 13 4 7 1017.0 1015.4 0.0
23/05:00am 16.0 14.7 9.2 64 3.6 SSW 6 11 3 6 1016.8 1015.3 0.0
23/04:30am 17.3 17.3 9.7 61 4.1 CALM 0 6 0 3 1016.6 1015.1 0.0
23/04:00am 17.0 15.1 9.2 60 4.1 SSW 9 13 5 7 1016.6 1015.1 0.0
23/03:30am 17.3 15.7 8.7 57 4.5 SW 7 9 4 5 1016.8 1015.3 0.0
23/03:00am 20.2 18.8 10.9 55 5.1 ENE 9 11 5 6 1016.7 1015.2 0.0
23/02:30am 19.2 17.7 9.1 52 5.4 ENE 7 9 4 5 1016.8 1015.3 0.0
23/02:00am 17.7 17.4 8.8 56 4.7 CALM 0 7 0 4 1017.1 1015.5 0.0
23/01:30am 18.7 18.3 8.4 51 5.4 CALM 0 7 0 4 1017.0 1015.4 0.0
23/01:00am 20.0 17.9 8.4 47 6.1 ESE 9 11 5 6 1017.0 1015.4 0.0
23/12:30am 19.4 18.6 8.1 48 5.9 E 2 7 1 4 1017.1 1015.5 0.0
23/12:00am 19.7 19.3 8.1 47 6.1 CALM 0 0 0 0 1017.2 1015.6 0.0
 
Date/Time
EDT
Temp
°C
App
Temp
°C
Dew
Point
°C
Rel
Hum
%
Delta-T
°C
Wind Press
QNH
hPa
Press
MSL
hPa
Rain since
9am
mm
Dir  Spd
km/h
Gust
km/h
Spd
kts
Gust
kts
22/11:30pm 21.2 19.9 7.8 42 7.1 ESE 4 7 2 4 1016.8 1015.3 0.0
22/11:00pm 22.1 21.6 7.9 40 7.5 CALM 0 0 0 0 1016.7 1015.2 0.0
22/10:30pm 22.7 22.2 7.7 38 8.0 CALM 0 0 0 0 1016.5 1015.0 0.0
22/10:00pm 23.7 22.1 7.8 36 8.5 SSW 6 7 3 4 1016.3 1014.8 0.0
22/09:30pm 25.0 24.4 7.6 33 9.3 CALM 0 0 0 0 1015.8 1014.3 0.0
22/09:00pm 26.6 25.7 7.6 30 10.3 NE 2 6 1 3 1015.3 1013.8 0.0
22/08:30pm 27.7 25.8 7.5 28 11.0 ENE 7 9 4 5 1015.0 1013.5 0.0
22/08:00pm 28.4 27.7 7.1 26 11.5 CALM 0 0 0 0 1014.9 1013.4 0.0
22/07:30pm 31.7 30.9 6.7 21 13.7 CALM 0 0 0 0 1014.7 1013.2 0.0
22/07:00pm 33.1 30.6 6.4 19 14.6 NW 9 15 5 8 1014.5 1013.0 0.0
22/06:30pm 33.6 30.6 6.0 18 15.1 NW 11 15 6 8 1014.6 1013.1 0.0
22/06:00pm 33.5 30.7 5.1 17 15.3 NNW 9 15 5 8 1014.7 1013.2 0.0
22/05:30pm 33.5 29.9 5.1 17 15.3 NW 13 20 7 11 1014.8 1013.3 0.0
22/05:00pm 34.1 31.0 5.6 17 15.5 NW 11 19 6 10 1015.0 1013.5 0.0
22/04:30pm 34.0 29.4 5.5 17 15.5 NNW 19 30 10 16 1015.3 1013.8 0.0
22/04:00pm 33.8 29.3 6.2 18 15.1 NNW 19 39 10 21 1015.5 1014.0 0.0
22/03:30pm 33.7 30.0 6.1 18 15.1 NNW 15 26 8 14 1015.9 1014.4 0.0
22/03:00pm 33.7 29.2 6.1 18 15.1 NNW 19 32 10 17 1016.4 1014.9 0.0
22/02:30pm 33.6 28.9 3.4 15 15.8 NW 17 26 9 14 1017.0 1015.4 0.0
22/02:00pm 32.8 28.0 4.6 17 15.0 NW 19 32 10 17 1017.3 1015.7 0.0
22/01:30pm 32.3 27.9 7.2 21 13.9 NNW 20 33 11 18 1017.6 1016.1 0.0
22/01:00pm 30.9 27.0 8.6 25 12.5 NNW 19 30 10 16 1017.9 1016.4 0.0
22/12:30pm 31.1 27.6 11.0 29 11.8 NW 20 28 11 15 1018.4 1016.9 0.0
22/12:00pm 30.2 26.0 9.7 28 11.7 NNW 22 32 12 17 1018.7 1017.2 0.0
22/11:30am 29.1 27.0 12.5 36 9.9 NNW 15 26 8 14 1019.3 1017.8 0.0
22/11:00am 27.4 25.9 13.0 41 8.5 NW 13 22 7 12 1019.8 1018.3 0.0
22/10:30am 27.7 27.5 12.9 40 8.8 SE 6 7 3 4 1019.8 1018.3 0.0
22/10:00am 24.9 24.1 12.8 47 7.1 SE 9 15 5 8 1020.0 1018.5 0.0
22/09:30am 23.0 22.0 12.3 51 6.2 SE 9 13 5 7 1020.2 1018.7 0.0
22/09:00am 21.8 20.8 12.4 55 5.4 SE 9 15 5 8 1020.2 1018.7 0.0
22/08:30am 19.9 19.1 11.7 59 4.6 SSE 7 11 4 6 1020.1 1018.6 0.0
22/08:00am 17.8 17.0 10.9 64 3.8 ESE 6 9 3 5 1020.0 1018.5 0.0
22/07:30am 14.2 13.8 8.4 68 3.0 CALM 0 6 0 3 1019.7 1018.2 0.0
22/07:00am 12.3 11.5 6.6 68 2.8 CALM 0 0 0 0 1019.3 1017.8 0.0
22/06:30am 12.3 11.6 6.8 69 2.7 CALM 0 0 0 0 1019.1 1017.6 0.0
22/06:00am 12.5 11.7 6.3 66 3.0 CALM 0 0 0 0 1018.8 1017.3 0.0
22/05:30am 13.0 12.3 7.0 67 2.9 CALM 0 0 0 0 1018.4 1016.9 0.0
22/05:00am 12.8 11.8 5.7 62 3.4 CALM 0 0 0 0 1018.2 1016.7 0.0
22/04:30am 12.9 11.5 3.6 53 4.2 CALM 0 0 0 0 1018.2 1016.7 0.0
22/04:00am 13.8 12.4 3.6 50 4.7 CALM 0 0 0 0 1018.2 1016.7 0.0
22/03:30am 15.0 12.1 2.5 43 5.7 S 7 9 4 5 1018.0 1016.5 0.0
22/03:00am 13.6 10.7 1.6 44 5.3 S 6 7 3 4 1018.2 1016.7 0.0
22/02:30am 13.6 11.8 1.3 43 5.4 CALM 0 0 0 0 1018.3 1016.8 0.0
22/02:00am 13.9 11.9 0.2 39 5.8 CALM 0 0 0 0 1018.4 1016.9 0.0
22/01:30am 13.9 11.2 0.5 40 5.8 S 4 7 2 4 1018.5 1017.0 0.0
22/01:00am 14.9 13.0 0.4 37 6.3 CALM 0 0 0 0 1018.7 1017.2 0.0
22/12:30am 13.8 10.7 1.5 43 5.4 SSW 7 9 4 5 1018.9 1017.4 0.0
22/12:00am 16.5 12.8 0.2 33 7.1 ESE 9 11 5 6 1018.7 1017.2 0.0
 
Date/Time
EDT
Temp
°C
App
Temp
°C
Dew
Point
°C
Rel
Hum
%
Delta-T
°C
Wind Press
QNH
hPa
Press
MSL
hPa
Rain since
9am
mm
Dir  Spd
km/h
Gust
km/h
Spd
kts
Gust
kts
21/11:30pm 16.2 12.4 -0.5 32 7.2 E 9 13 5 7 1018.7 1017.2 0.0
21/11:00pm 16.9 14.0 -1.2 29 7.7 E 4 11 2 6 1018.6 1017.1 0.0
21/10:30pm 19.0 15.2 -0.9 26 8.7 ESE 9 11 5 6 1018.4 1016.9 0.0
21/10:00pm 18.4 16.2 -1.4 26 8.5 CALM 0 6 0 3 1018.2 1016.7 0.0
21/09:30pm 20.1 17.0 -2.3 22 9.6 ESE 4 9 2 5 1018.0 1016.5 0.0

Other Formats:

Comma delimited format used in spreadsheet applications
http://www.bom.gov.au/fwo/IDN60801/IDN60801.95721.axf

JavaScript Object Notation format (JSON) in row-major order
http://www.bom.gov.au/fwo/IDN60801/IDN60801.95721.json